Time;durP1;ratioP1;P1;durP2;ratioP2;P2;SDS_P1;SDS_P2;PMS_P1;PMS_P2;Temp;Humidity;BMP_temperature;BMP_pressure;BME280_temperature;BME280_humidity;BME280_pressure;Samples;Min_cycle;Max_cycle;Signal;HPM_P1;HPM_P2
2023/07/23 00:00:58;;;;;;;7.85;6.25;;;19.00;99.90;;;;;;5052470;28;20096;-88
2023/07/23 00:03:24;;;;;;;10.27;6.47;;;19.10;99.90;;;;;;5032350;28;20407;-89
2023/07/23 00:05:51;;;;;;;11.55;6.18;;;19.10;99.90;;;;;;5044570;28;20021;-87
2023/07/23 00:08:16;;;;;;;11.13;6.25;;;19.00;99.90;;;;;;5050422;28;20036;-86
2023/07/23 00:10:42;;;;;;;10.25;6.30;;;18.90;99.90;;;;;;5052602;28;20017;-87
2023/07/23 00:13:08;;;;;;;11.48;6.30;;;18.90;99.90;;;;;;5051050;28;20116;-86
2023/07/23 00:15:34;;;;;;;9.55;6.53;;;18.80;99.90;;;;;;5049397;28;20029;-89
2023/07/23 00:18:00;;;;;;;9.48;6.13;;;18.90;99.90;;;;;;5050243;28;20445;-87
2023/07/23 00:20:26;;;;;;;11.18;6.05;;;18.70;99.90;;;;;;5051792;28;20021;-86
2023/07/23 00:22:51;;;;;;;9.90;6.35;;;18.90;99.90;;;;;;5051148;28;20048;-88
2023/07/23 00:25:17;;;;;;;10.32;6.32;;;18.80;99.90;;;;;;5051826;28;20064;-87
2023/07/23 00:27:43;;;;;;;11.40;5.82;;;19.00;99.90;;;;;;5050259;28;20029;-88
2023/07/23 00:30:09;;;;;;;11.93;6.82;;;18.90;99.90;;;;;;5050355;28;20055;-86
2023/07/23 00:32:35;;;;;;;8.77;6.05;;;19.00;99.90;;;;;;5051906;28;20083;-87
2023/07/23 00:35:00;;;;;;;11.20;6.63;;;19.00;99.90;;;;;;5051925;28;20092;-86
2023/07/23 00:37:29;;;;;;;8.85;6.15;;;18.90;99.90;;;;;;5050693;28;20063;-88
2023/07/23 00:39:55;;;;;;;11.85;5.82;;;18.90;99.90;;;;;;5051961;28;20036;-90
2023/07/23 00:42:21;;;;;;;10.45;5.85;;;19.00;99.90;;;;;;5047567;28;20037;-86
2023/07/23 00:44:46;;;;;;;8.85;5.88;;;19.00;99.90;;;;;;5049944;28;20064;-90
2023/07/23 00:47:12;;;;;;;13.25;5.70;;;18.90;99.90;;;;;;5051736;28;20115;-91
2023/07/23 00:49:38;;;;;;;9.45;5.90;;;18.90;99.90;;;;;;5051175;28;20013;-89
2023/07/23 00:52:05;;;;;;;9.68;5.93;;;18.90;99.90;;;;;;5051198;28;20492;-88
2023/07/23 00:54:31;;;;;;;11.40;5.85;;;18.90;99.90;;;;;;5037166;28;20037;-89
2023/07/23 00:56:58;;;;;;;11.35;6.10;;;18.90;99.90;;;;;;5051117;28;20036;-91
2023/07/23 00:59:24;;;;;;;9.45;5.75;;;19.00;99.90;;;;;;5050563;28;20021;-89
2023/07/23 01:01:50;;;;;;;15.10;6.30;;;19.00;99.90;;;;;;5050002;28;20051;-87
2023/07/23 01:04:16;;;;;;;11.63;6.63;;;19.00;99.90;;;;;;5049543;28;20105;-91
2023/07/23 01:06:43;;;;;;;9.63;5.43;;;19.00;99.90;;;;;;5049483;28;20564;-88
2023/07/23 01:09:09;;;;;;;8.93;5.65;;;18.90;99.90;;;;;;5051494;28;20025;-88
2023/07/23 01:11:35;;;;;;;11.80;5.72;;;19.00;99.90;;;;;;5048984;28;20041;-87
2023/07/23 01:14:05;;;;;;;11.68;5.75;;;19.10;99.90;;;;;;5051261;28;20028;-88
2023/07/23 01:16:32;;;;;;;11.48;5.70;;;19.10;99.90;;;;;;5051247;28;20040;-86
2023/07/23 01:18:59;;;;;;;10.57;5.72;;;19.10;99.90;;;;;;5050523;28;20024;-86
2023/07/23 01:21:25;;;;;;;7.25;5.63;;;19.00;99.90;;;;;;5048332;28;20092;-94
2023/07/23 01:23:50;;;;;;;13.82;5.78;;;19.00;99.90;;;;;;5050252;28;20056;-88
2023/07/23 01:26:17;;;;;;;9.77;5.93;;;18.90;99.90;;;;;;5050230;28;20024;-89
2023/07/23 01:28:42;;;;;;;11.13;5.90;;;19.00;99.90;;;;;;5051675;28;20029;-90
2023/07/23 01:31:09;;;;;;;9.07;5.28;;;18.90;99.90;;;;;;5050984;28;20025;-90
2023/07/23 01:33:35;;;;;;;12.52;5.55;;;18.90;99.90;;;;;;5033004;28;20031;-86
2023/07/23 01:36:02;;;;;;;9.52;5.38;;;19.00;99.90;;;;;;5054105;28;20115;-90
2023/07/23 01:38:28;;;;;;;12.95;5.40;;;18.70;99.90;;;;;;5044505;28;20029;-88
2023/07/23 01:40:53;;;;;;;11.45;4.97;;;18.80;99.90;;;;;;5038946;28;20033;-93
2023/07/23 01:43:20;;;;;;;12.80;5.38;;;18.90;99.90;;;;;;5042122;28;20057;-89
2023/07/23 01:45:46;;;;;;;8.90;4.97;;;19.00;99.90;;;;;;5050062;28;20075;-90
2023/07/23 01:48:13;;;;;;;10.82;4.78;;;18.90;99.90;;;;;;5046726;28;20510;-86
2023/07/23 01:50:39;;;;;;;11.05;5.00;;;18.80;99.90;;;;;;5053083;28;20025;-87
2023/07/23 01:53:06;;;;;;;8.15;4.82;;;18.90;99.90;;;;;;5047832;28;20025;-89
2023/07/23 01:55:32;;;;;;;7.78;5.10;;;18.90;99.90;;;;;;5029615;28;20025;-87
2023/07/23 01:57:57;;;;;;;8.43;4.43;;;19.00;99.90;;;;;;5029073;28;20067;-85
2023/07/23 02:00:23;;;;;;;9.90;4.60;;;19.00;99.90;;;;;;5055506;28;20025;-87
2023/07/23 02:02:49;;;;;;;10.55;4.53;;;19.00;99.90;;;;;;5069339;28;20079;-92
2023/07/23 02:05:14;;;;;;;10.50;4.25;;;19.00;99.90;;;;;;5039256;28;20026;-88
2023/07/23 02:07:40;;;;;;;6.68;4.22;;;18.80;99.90;;;;;;5038173;28;20021;-85
2023/07/23 02:10:07;;;;;;;10.05;4.45;;;18.80;99.90;;;;;;5029706;28;20481;-87
2023/07/23 02:12:33;;;;;;;7.38;4.03;;;18.80;99.90;;;;;;5029661;28;20291;-85
2023/07/23 02:14:59;;;;;;;7.32;3.83;;;18.80;99.90;;;;;;5028425;28;20107;-86
2023/07/23 02:17:25;;;;;;;8.73;3.95;;;18.60;99.90;;;;;;5030952;28;20056;-89
2023/07/23 02:19:51;;;;;;;7.47;4.00;;;18.50;99.90;;;;;;5039308;28;20029;-90
2023/07/23 02:22:17;;;;;;;7.82;3.75;;;18.70;99.90;;;;;;5026775;28;20030;-87
2023/07/23 02:24:42;;;;;;;11.75;3.92;;;18.70;99.90;;;;;;5036725;28;20381;-87
2023/07/23 02:27:08;;;;;;;5.63;3.72;;;18.80;99.90;;;;;;5047816;28;20100;-91
2023/07/23 02:29:33;;;;;;;6.80;3.80;;;18.90;99.90;;;;;;5036176;28;20376;-86
2023/07/23 02:31:59;;;;;;;8.15;3.75;;;18.80;99.90;;;;;;5032427;28;20025;-94
2023/07/23 02:34:25;;;;;;;5.97;3.42;;;18.70;99.90;;;;;;5028934;28;20457;-85
2023/07/23 02:36:50;;;;;;;9.93;3.83;;;18.80;99.90;;;;;;5031839;28;20116;-88
2023/07/23 02:39:16;;;;;;;7.63;3.58;;;18.70;99.90;;;;;;5032065;28;20503;-93
2023/07/23 02:41:42;;;;;;;5.93;3.20;;;18.90;99.90;;;;;;5042263;28;20021;-93
2023/07/23 02:44:08;;;;;;;6.25;3.10;;;18.80;99.90;;;;;;5029423;28;20039;-91
2023/07/23 02:46:33;;;;;;;7.35;3.22;;;18.70;99.90;;;;;;5029109;28;20026;-92
2023/07/23 02:48:59;;;;;;;6.78;3.63;;;18.70;99.90;;;;;;5037336;28;20021;-93
2023/07/23 02:51:24;;;;;;;7.50;3.60;;;18.70;99.90;;;;;;5049304;28;20017;-87
2023/07/23 02:53:50;;;;;;;7.45;3.30;;;18.70;99.90;;;;;;5048905;28;20032;-90
2023/07/23 02:56:16;;;;;;;7.45;3.97;;;18.70;99.90;;;;;;5051323;28;20013;-85
2023/07/23 02:58:42;;;;;;;10.20;3.60;;;18.60;99.90;;;;;;5053659;28;20033;-87
2023/07/23 03:01:09;;;;;;;7.95;3.45;;;18.90;99.90;;;;;;5052067;28;20028;-89
2023/07/23 03:03:35;;;;;;;7.07;3.47;;;18.80;99.90;;;;;;5053770;28;20040;-90
2023/07/23 03:06:01;;;;;;;4.78;3.00;;;18.70;99.90;;;;;;5046914;28;20036;-85
2023/07/23 03:08:27;;;;;;;6.65;2.97;;;18.60;99.90;;;;;;5062022;28;20025;-86
2023/07/23 03:10:53;;;;;;;5.43;3.30;;;18.70;99.90;;;;;;5056128;28;20025;-86
2023/07/23 03:13:18;;;;;;;5.55;3.20;;;18.80;99.90;;;;;;5061050;28;20025;-86
2023/07/23 03:15:44;;;;;;;4.22;3.10;;;18.70;99.90;;;;;;5062482;28;20059;-91
2023/07/23 03:18:09;;;;;;;6.75;3.10;;;18.70;99.90;;;;;;5056167;28;20041;-89
2023/07/23 03:20:35;;;;;;;6.03;3.00;;;18.70;99.90;;;;;;5032833;28;20033;-91
2023/07/23 03:23:00;;;;;;;5.53;2.92;;;18.80;99.90;;;;;;5048390;28;20025;-86
2023/07/23 03:25:26;;;;;;;3.70;2.80;;;18.90;99.90;;;;;;5043797;28;20034;-87
2023/07/23 03:27:52;;;;;;;6.10;3.50;;;18.90;99.90;;;;;;5039528;28;20025;-89
2023/07/23 03:30:18;;;;;;;5.53;3.08;;;18.80;99.90;;;;;;5046103;28;20052;-85
2023/07/23 03:32:43;;;;;;;4.65;3.00;;;18.80;99.90;;;;;;5051927;28;20048;-85
2023/07/23 03:35:09;;;;;;;4.43;3.15;;;18.70;99.90;;;;;;5058026;28;20068;-85
2023/07/23 03:37:35;;;;;;;6.32;2.90;;;18.80;99.90;;;;;;5056534;28;20032;-85
2023/07/23 03:40:00;;;;;;;5.35;3.10;;;18.80;99.90;;;;;;5050900;28;20033;-87
2023/07/23 03:42:26;;;;;;;3.67;2.63;;;18.70;99.90;;;;;;5050496;28;20032;-85
2023/07/23 03:44:51;;;;;;;4.00;2.78;;;18.80;99.90;;;;;;5060938;28;20043;-87
2023/07/23 03:47:19;;;;;;;5.32;2.80;;;18.80;99.90;;;;;;5062652;28;20045;-84
2023/07/23 03:49:46;;;;;;;4.47;2.60;;;18.80;99.90;;;;;;5053347;28;20025;-91
2023/07/23 03:52:12;;;;;;;6.80;2.70;;;18.60;99.90;;;;;;5059600;28;20020;-91
2023/07/23 03:54:38;;;;;;;6.78;2.67;;;18.80;99.90;;;;;;5069255;28;20040;-88
2023/07/23 03:57:04;;;;;;;4.18;2.67;;;18.90;99.90;;;;;;5072126;28;20024;-89
2023/07/23 03:59:49;;;;;;;6.93;2.60;;;19.00;99.90;;;;;;5072048;28;20033;-89
2023/07/23 04:02:15;;;;;;;4.20;2.50;;;18.80;99.90;;;;;;5054489;28;20029;-86
2023/07/23 04:04:40;;;;;;;4.13;2.60;;;18.80;99.90;;;;;;5051224;28;20040;-88
2023/07/23 04:07:07;;;;;;;5.13;2.50;;;18.90;99.90;;;;;;5050561;28;20028;-89
2023/07/23 04:09:34;;;;;;;3.50;2.20;;;18.90;99.90;;;;;;5046964;28;20033;-87
2023/07/23 04:12:00;;;;;;;3.80;2.45;;;18.90;99.90;;;;;;5031958;28;20033;-86
2023/07/23 04:14:26;;;;;;;2.53;1.92;;;18.90;99.90;;;;;;5052464;28;20111;-92
2023/07/23 04:16:53;;;;;;;4.18;2.17;;;19.00;99.90;;;;;;5051407;28;20039;-89
2023/07/23 04:19:19;;;;;;;2.83;2.00;;;19.00;99.90;;;;;;5052361;28;20021;-88
2023/07/23 04:21:45;;;;;;;2.53;1.98;;;18.90;99.90;;;;;;5050934;28;20369;-89
2023/07/23 04:24:10;;;;;;;3.15;1.80;;;19.00;99.90;;;;;;5052472;28;20083;-92
2023/07/23 04:26:36;;;;;;;3.53;1.77;;;19.10;99.90;;;;;;5050016;28;20392;-89
2023/07/23 04:29:01;;;;;;;3.42;1.90;;;19.10;99.90;;;;;;5050641;28;20033;-89
2023/07/23 04:31:27;;;;;;;2.47;2.00;;;18.80;99.90;;;;;;5050855;28;20035;-87
2023/07/23 04:33:53;;;;;;;2.40;1.83;;;19.00;99.90;;;;;;5050288;28;20033;-90
2023/07/23 04:36:19;;;;;;;3.17;1.52;;;18.90;99.90;;;;;;5050868;28;20017;-91
2023/07/23 04:38:45;;;;;;;2.10;1.60;;;18.80;99.90;;;;;;5054525;28;20116;-85
2023/07/23 04:41:12;;;;;;;2.85;1.80;;;18.80;99.90;;;;;;5054124;28;20328;-87
2023/07/23 04:43:39;;;;;;;1.85;1.75;;;18.80;99.90;;;;;;5049885;28;20068;-92
2023/07/23 04:46:05;;;;;;;3.40;2.38;;;19.00;99.90;;;;;;5036161;28;20501;-89
2023/07/23 04:48:32;;;;;;;3.33;1.70;;;18.90;99.90;;;;;;5037435;28;20025;-87
2023/07/23 04:50:59;;;;;;;3.78;1.65;;;18.80;99.90;;;;;;5035104;28;20100;-85
2023/07/23 04:53:25;;;;;;;3.22;2.05;;;18.90;99.90;;;;;;5047980;28;20048;-87
2023/07/23 04:55:54;;;;;;;3.15;2.13;;;18.80;99.90;;;;;;5059758;28;20024;-87
2023/07/23 04:58:21;;;;;;;3.45;1.73;;;18.90;99.90;;;;;;5062120;28;20028;-88
2023/07/23 05:00:47;;;;;;;2.80;1.98;;;18.90;99.90;;;;;;5056004;28;20036;-87
2023/07/23 05:03:13;;;;;;;3.72;2.00;;;18.90;99.90;;;;;;5056013;28;20047;-84
2023/07/23 05:05:45;;;;;;;3.85;2.03;;;18.90;99.90;;;;;;5050778;28;20100;-88
2023/07/23 05:08:10;;;;;;;2.80;2.05;;;18.90;99.90;;;;;;5053672;28;20075;-84
2023/07/23 05:10:36;;;;;;;2.72;2.03;;;18.90;99.90;;;;;;5048828;28;20434;-86
2023/07/23 05:13:03;;;;;;;2.53;1.85;;;19.00;99.90;;;;;;5049679;28;20028;-86
2023/07/23 05:15:29;;;;;;;2.88;2.10;;;19.10;99.90;;;;;;5049330;28;20451;-86
2023/07/23 05:17:56;;;;;;;2.33;1.88;;;19.00;99.90;;;;;;5032060;28;20025;-86
2023/07/23 05:20:21;;;;;;;2.92;1.77;;;19.10;99.90;;;;;;5033311;28;20476;-86
2023/07/23 05:22:47;;;;;;;2.65;1.70;;;19.00;99.90;;;;;;5050205;28;20041;-85
2023/07/23 05:25:16;;;;;;;2.15;1.60;;;19.10;99.90;;;;;;5051922;28;20025;-86
2023/07/23 05:27:41;;;;;;;2.55;1.52;;;19.10;99.90;;;;;;5035086;28;20033;-86
2023/07/23 05:30:07;;;;;;;2.40;1.50;;;19.20;99.90;;;;;;5035331;28;20033;-86
2023/07/23 05:32:33;;;;;;;4.03;1.92;;;19.20;99.90;;;;;;5053230;28;20024;-88
2023/07/23 05:34:59;;;;;;;2.53;1.70;;;19.10;99.90;;;;;;5051572;28;20025;-86
2023/07/23 05:37:25;;;;;;;1.45;1.35;;;19.00;99.90;;;;;;5049083;28;20428;-87
2023/07/23 05:39:54;;;;;;;2.22;1.60;;;19.10;99.90;;;;;;5050443;28;20044;-84
2023/07/23 05:42:21;;;;;;;3.83;1.90;;;19.00;99.90;;;;;;5052117;28;20060;-84
2023/07/23 05:44:47;;;;;;;1.70;1.60;;;19.10;99.90;;;;;;5052991;28;20021;-85
2023/07/23 05:47:12;;;;;;;1.98;1.50;;;19.10;99.90;;;;;;5051147;28;20033;-86
2023/07/23 05:49:38;;;;;;;2.80;1.58;;;19.20;99.90;;;;;;5054072;28;20112;-86
2023/07/23 05:52:05;;;;;;;1.45;1.35;;;19.30;99.90;;;;;;5042517;28;20022;-86
2023/07/23 05:54:32;;;;;;;2.40;1.30;;;19.30;99.90;;;;;;5067747;28;20035;-86
2023/07/23 05:56:58;;;;;;;3.42;1.63;;;19.40;99.90;;;;;;5059389;28;20032;-85
2023/07/23 05:59:27;;;;;;;1.40;1.30;;;19.40;99.90;;;;;;5067508;28;20017;-86
2023/07/23 06:01:53;;;;;;;1.30;1.20;;;19.40;99.90;;;;;;5065241;28;20025;-86
2023/07/23 06:04:20;;;;;;;1.55;1.40;;;19.50;99.90;;;;;;5065213;28;20053;-85
2023/07/23 06:06:56;;;;;;;1.48;1.33;;;19.50;99.90;;;;;;5064820;28;20041;-85
2023/07/23 06:09:23;;;;;;;;;;;19.40;99.90;;;;;;5063773;28;20036;-85
2023/07/23 06:11:55;;;;;;;1.50;1.40;;;19.40;99.90;;;;;;5061818;28;19913;-85
2023/07/23 06:14:21;;;;;;;1.30;1.20;;;19.40;99.90;;;;;;5056761;28;20029;-87
2023/07/23 06:16:47;;;;;;;1.25;1.15;;;19.50;99.90;;;;;;5050062;28;20036;-85
2023/07/23 06:19:14;;;;;;;1.20;1.10;;;19.50;99.90;;;;;;5052474;28;20025;-88
2023/07/23 06:21:40;;;;;;;2.53;1.35;;;19.50;99.90;;;;;;5047612;28;20025;-85
2023/07/23 06:24:06;;;;;;;1.38;1.20;;;19.50;99.90;;;;;;5054154;28;20029;-85
2023/07/23 06:26:32;;;;;;;2.45;1.30;;;19.50;99.90;;;;;;5056910;28;20071;-85
2023/07/23 06:28:58;;;;;;;1.75;1.00;;;19.40;99.90;;;;;;5057576;28;20520;-86
2023/07/23 06:31:23;;;;;;;1.73;1.20;;;19.50;99.90;;;;;;5063261;28;20036;-85
2023/07/23 06:33:49;;;;;;;1.40;1.30;;;19.60;99.90;;;;;;5060672;28;20032;-93
2023/07/23 06:36:15;;;;;;;1.58;1.27;;;19.60;99.90;;;;;;5053628;28;20067;-86
2023/07/23 06:38:40;;;;;;;2.60;1.10;;;19.60;99.90;;;;;;5051802;28;20013;-87
2023/07/23 06:41:06;;;;;;;1.95;1.23;;;19.70;99.90;;;;;;5053051;28;20489;-86
2023/07/23 06:43:32;;;;;;;1.63;1.15;;;19.50;99.90;;;;;;5054109;28;20044;-86
2023/07/23 06:45:58;;;;;;;1.10;1.00;;;19.70;99.90;;;;;;5040836;28;20025;-86
2023/07/23 06:48:28;;;;;;;1.77;1.17;;;19.80;99.90;;;;;;5038826;28;20036;-84
2023/07/23 06:50:55;;;;;;;2.03;1.15;;;19.80;99.90;;;;;;5035068;28;20028;-88
2023/07/23 06:53:21;;;;;;;1.67;1.10;;;19.90;99.90;;;;;;5049845;28;20044;-87
2023/07/23 06:56:04;;;;;;;3.40;0.98;;;20.00;99.90;;;;;;5055545;28;20018;-88
2023/07/23 06:58:34;;;;;;;2.13;1.10;;;19.90;99.90;;;;;;5055306;28;20033;-88
2023/07/23 07:01:00;;;;;;;0.93;0.80;;;19.90;99.90;;;;;;5056226;28;20027;-87
2023/07/23 07:03:28;;;;;;;1.67;1.00;;;19.90;99.90;;;;;;5056535;28;20068;-87
2023/07/23 07:05:53;;;;;;;1.38;1.00;;;20.00;99.90;;;;;;5057846;28;20480;-87
2023/07/23 07:08:19;;;;;;;1.83;1.17;;;20.00;99.90;;;;;;5054923;28;20044;-87
2023/07/23 07:10:46;;;;;;;1.60;1.20;;;20.00;99.90;;;;;;5045326;28;20501;-87
2023/07/23 07:13:15;;;;;;;2.38;1.25;;;19.90;99.90;;;;;;5039336;28;20473;-84
2023/07/23 07:15:42;;;;;;;2.28;0.90;;;19.90;99.90;;;;;;5046247;28;20116;-84
2023/07/23 07:18:07;;;;;;;1.55;1.10;;;19.90;99.90;;;;;;5047504;28;20018;-85
2023/07/23 07:20:33;;;;;;;1.67;1.00;;;19.90;99.90;;;;;;5051505;28;20030;-86
2023/07/23 07:22:59;;;;;;;2.30;1.23;;;20.00;99.90;;;;;;5051697;28;20032;-87
2023/07/23 07:25:25;;;;;;;2.28;1.30;;;19.90;99.90;;;;;;5052283;28;20056;-89
2023/07/23 07:27:50;;;;;;;2.10;1.27;;;20.00;99.90;;;;;;5052367;28;20025;-88
2023/07/23 07:30:16;;;;;;;1.95;1.08;;;20.00;99.90;;;;;;5048203;28;20025;-89
2023/07/23 07:32:42;;;;;;;1.65;0.93;;;20.00;99.90;;;;;;5051882;28;20043;-88
2023/07/23 07:35:08;;;;;;;3.08;1.35;;;20.00;99.90;;;;;;5050456;28;20032;-89
2023/07/23 07:37:33;;;;;;;1.48;1.00;;;20.10;99.90;;;;;;5048540;28;20025;-88
2023/07/23 07:39:59;;;;;;;2.90;1.20;;;20.20;99.90;;;;;;5050402;28;20041;-88
2023/07/23 07:42:26;;;;;;;2.33;1.20;;;20.20;99.90;;;;;;5048007;28;20035;-88
2023/07/23 07:44:52;;;;;;;1.00;0.80;;;20.20;99.90;;;;;;5049958;28;20477;-88
2023/07/23 07:47:17;;;;;;;1.77;1.02;;;20.20;99.90;;;;;;5049932;28;20028;-88
2023/07/23 07:49:43;;;;;;;2.55;1.30;;;20.20;99.90;;;;;;5046930;28;20033;-89
2023/07/23 07:52:08;;;;;;;2.65;1.13;;;20.00;99.90;;;;;;5049477;28;20033;-88
2023/07/23 07:54:35;;;;;;;2.35;1.10;;;20.10;99.90;;;;;;5051670;28;20449;-89
2023/07/23 07:57:02;;;;;;;1.23;1.00;;;20.10;99.90;;;;;;5050707;28;20025;-88
2023/07/23 07:59:29;;;;;;;2.28;1.00;;;20.00;99.90;;;;;;5051433;28;20025;-89
2023/07/23 08:01:55;;;;;;;1.10;0.90;;;20.10;99.90;;;;;;5051206;28;20021;-91
2023/07/23 08:04:21;;;;;;;2.90;1.08;;;20.10;99.90;;;;;;5054109;28;20580;-92
2023/07/23 08:06:48;;;;;;;2.15;1.13;;;20.10;99.90;;;;;;5052188;28;20049;-91
2023/07/23 08:09:16;;;;;;;1.83;1.08;;;20.10;99.90;;;;;;5050929;28;20036;-88
2023/07/23 08:11:42;;;;;;;1.15;0.98;;;20.20;99.90;;;;;;5049442;28;20492;-88
2023/07/23 08:14:09;;;;;;;1.10;1.00;;;20.10;99.90;;;;;;5049996;28;20353;-88
2023/07/23 08:16:35;;;;;;;2.58;0.90;;;20.20;99.90;;;;;;5051809;28;20013;-87
2023/07/23 08:19:01;;;;;;;0.77;0.77;;;20.20;99.90;;;;;;5049941;28;20159;-88
2023/07/23 08:21:27;;;;;;;2.08;1.02;;;20.30;99.90;;;;;;5044639;28;20029;-91
2023/07/23 08:23:53;;;;;;;1.40;0.90;;;20.10;99.90;;;;;;5050544;28;20112;-89
2023/07/23 08:26:23;;;;;;;2.05;1.20;;;20.40;99.90;;;;;;5050495;28;20025;-92
2023/07/23 08:28:53;;;;;;;1.30;1.10;;;20.40;99.90;;;;;;5050721;28;20052;-91
2023/07/23 08:31:19;;;;;;;1.27;1.00;;;20.50;99.90;;;;;;5048855;28;20040;-90
2023/07/23 08:33:47;;;;;;;4.00;0.93;;;20.70;99.90;;;;;;5048372;28;20112;-91
2023/07/23 08:36:19;;;;;;;1.67;1.10;;;20.60;99.90;;;;;;5051696;28;20457;-92
2023/07/23 08:38:45;;;;;;;1.27;0.95;;;20.60;99.90;;;;;;5049331;28;20052;-90
2023/07/23 08:41:23;;;;;;;3.50;0.95;;;20.50;99.90;;;;;;5044642;28;20039;-91
2023/07/23 08:44:26;;;;;;;1.83;1.10;;;20.50;99.90;;;;;;5049520;28;20063;-93
2023/07/23 08:47:12;;;;;;;1.45;0.90;;;20.60;99.90;;;;;;5050120;28;20083;-91
2023/07/23 08:49:43;;;;;;;1.65;1.10;;;20.60;99.90;;;;;;5052892;28;20033;-91
2023/07/23 08:52:12;;;;;;;1.75;1.00;;;20.50;99.90;;;;;;5042180;28;20515;-93
2023/07/23 08:54:40;;;;;;;2.58;1.30;;;20.30;99.90;;;;;;5034983;28;20013;-93
2023/07/23 08:57:07;;;;;;;2.50;1.20;;;20.30;99.90;;;;;;5051108;28;20119;-94
2023/07/23 08:59:34;;;;;;;1.40;1.10;;;20.40;99.90;;;;;;5040501;28;20072;-95
2023/07/23 09:02:01;;;;;;;3.25;1.20;;;20.40;99.90;;;;;;5041068;28;20127;-96
2023/07/23 09:04:27;;;;;;;2.00;1.10;;;20.50;99.90;;;;;;5066159;28;20104;-94
2023/07/23 09:07:00;;;;;;;1.75;0.98;;;20.40;99.90;;;;;;5072482;28;20037;-91
2023/07/23 09:09:26;;;;;;;2.30;1.45;;;20.20;99.90;;;;;;5051770;28;20436;-93
2023/07/23 09:11:52;;;;;;;2.28;1.10;;;20.30;99.90;;;;;;5049643;28;20485;-93
2023/07/23 09:14:18;;;;;;;1.20;0.90;;;20.30;99.90;;;;;;5049788;28;20025;-90
2023/07/23 09:16:47;;;;;;;1.60;0.93;;;20.30;99.90;;;;;;5048395;28;20025;-92
2023/07/23 09:19:22;;;;;;;1.10;0.75;;;20.30;99.90;;;;;;5050229;28;20028;-91
2023/07/23 09:21:47;;;;;;;6.30;0.70;;;20.10;99.90;;;;;;5049203;28;20031;-92
2023/07/23 09:24:16;;;;;;;2.95;1.17;;;20.30;99.90;;;;;;5050732;28;20103;-91
2023/07/23 09:26:42;;;;;;;0.70;0.70;;;20.40;99.90;;;;;;5050577;28;20052;-91
2023/07/23 09:29:11;;;;;;;1.80;1.00;;;20.40;99.90;;;;;;5047250;28;20028;-91
2023/07/23 09:31:52;;;;;;;1.48;0.90;;;20.50;99.90;;;;;;5048918;28;20037;-93
2023/07/23 09:34:21;;;;;;;1.13;0.82;;;20.60;99.90;;;;;;5052258;28;20111;-93
2023/07/23 09:36:52;;;;;;;1.15;0.80;;;20.50;99.90;;;;;;5045439;28;20189;-93
2023/07/23 09:39:18;;;;;;;1.92;0.80;;;20.40;99.90;;;;;;5048192;28;20026;-93
2023/07/23 09:41:44;;;;;;;1.67;0.75;;;20.40;99.90;;;;;;5051987;28;20021;-91
2023/07/23 09:44:13;;;;;;;3.63;1.30;;;20.40;99.90;;;;;;5050025;28;20033;-92
2023/07/23 09:46:43;;;;;;;1.52;1.05;;;20.50;99.90;;;;;;5048823;28;20028;-93
2023/07/23 09:49:09;;;;;;;2.78;1.10;;;20.50;99.90;;;;;;5047373;28;20508;-94
2023/07/23 09:51:37;;;;;;;5.75;0.80;;;20.40;99.90;;;;;;5045859;28;20059;-91
2023/07/23 09:54:04;;;;;;;1.08;0.95;;;20.00;99.90;;;;;;5055184;28;20024;-93
2023/07/23 09:56:33;;;;;;;1.08;0.73;;;20.50;99.90;;;;;;5047184;28;20025;-93
2023/07/23 09:59:02;;;;;;;0.98;0.70;;;20.50;99.90;;;;;;5050465;28;20059;-94
2023/07/23 10:01:28;;;;;;;2.15;0.80;;;20.60;99.90;;;;;;5041535;28;20029;-94
2023/07/23 10:04:17;;;;;;;1.05;0.80;;;20.70;99.90;;;;;;5031259;28;20037;-95
2023/07/23 10:06:44;;;;;;;1.60;1.10;;;20.80;99.90;;;;;;5049674;28;20029;-94
2023/07/23 10:09:13;;;;;;;1.33;0.82;;;20.60;99.90;;;;;;5049971;28;20029;-94
2023/07/23 10:11:39;;;;;;;2.63;0.80;;;20.70;99.90;;;;;;5049165;28;20124;-95
2023/07/23 10:14:13;;;;;;;0.95;0.70;;;20.90;99.90;;;;;;5050130;28;20057;-94
2023/07/23 10:16:42;;;;;;;0.93;0.90;;;20.90;99.90;;;;;;5048097;28;20120;-93
2023/07/23 10:19:12;;;;;;;4.25;1.02;;;20.80;99.90;;;;;;5048888;28;20037;-95
2023/07/23 10:21:43;;;;;;;1.92;0.98;;;20.80;99.90;;;;;;5047824;28;20467;-95
2023/07/23 10:24:09;;;;;;;2.63;1.10;;;20.60;99.90;;;;;;5030638;28;20033;-94
2023/07/23 10:26:53;;;;;;;1.05;0.77;;;20.60;99.90;;;;;;5029983;28;20022;-93
2023/07/23 10:29:21;;;;;;;1.15;0.88;;;20.80;99.90;;;;;;5047671;28;20037;-91
2023/07/23 10:31:47;;;;;;;2.97;1.20;;;20.70;99.90;;;;;;5049029;28;20062;-93
2023/07/23 10:34:22;;;;;;;1.27;0.93;;;20.70;99.90;;;;;;5050239;28;20025;-92
2023/07/23 10:37:18;;;;;;;0.93;0.73;;;20.60;99.90;;;;;;5052957;28;20037;-93
2023/07/23 10:39:46;;;;;;;0.98;0.80;;;20.60;99.90;;;;;;5047446;28;20099;-94
2023/07/23 10:42:37;;;;;;;1.35;0.90;;;20.60;99.90;;;;;;5049713;28;20100;-92
2023/07/23 10:45:22;;;;;;;2.65;0.80;;;20.70;99.90;;;;;;5048907;28;20033;-94
2023/07/23 10:48:00;;;;;;;1.83;0.80;;;20.80;99.90;;;;;;5037428;28;20489;-93
2023/07/23 10:50:27;;;;;;;;;;;20.90;99.90;;;;;;5029554;28;20389;-92
2023/07/23 10:53:02;;;;;;;2.60;0.82;;;20.90;99.90;;;;;;5040143;28;19909;-93
2023/07/23 10:55:47;;;;;;;1.55;0.77;;;21.00;99.90;;;;;;5047997;28;20033;-94
2023/07/23 10:58:15;;;;;;;1.08;0.80;;;21.20;99.90;;;;;;5049651;28;20031;-95
2023/07/23 11:00:55;;;;;;;0.70;0.70;;;21.30;99.90;;;;;;5049512;28;20025;-91
2023/07/23 11:03:22;;;;;;;1.33;0.70;;;21.40;99.90;;;;;;5048372;28;20128;-93
2023/07/23 11:05:50;;;;;;;0.82;0.65;;;21.40;99.90;;;;;;5047768;28;20025;-92
2023/07/23 11:08:24;;;;;;;;;;;21.20;99.90;;;;;;5049079;28;20057;-93
2023/07/23 11:11:09;;;;;;;1.40;0.90;;;21.30;99.90;;;;;;5049733;28;19912;-92
2023/07/23 11:13:35;;;;;;;1.35;0.80;;;21.40;99.90;;;;;;5050007;28;20048;-95
2023/07/23 11:16:02;;;;;;;1.00;0.70;;;21.10;99.90;;;;;;5047691;28;20393;-93
2023/07/23 11:18:32;;;;;;;2.05;0.70;;;21.20;99.90;;;;;;5050514;28;20021;-93
2023/07/23 11:21:16;;;;;;;1.05;0.90;;;21.30;99.90;;;;;;5055399;28;20024;-95
2023/07/23 11:23:41;;;;;;;1.15;0.75;;;21.30;99.90;;;;;;5042468;28;20084;-94
2023/07/23 11:26:07;;;;;;;1.10;0.80;;;21.40;99.90;;;;;;5033893;28;20049;-95
2023/07/23 11:28:33;;;;;;;2.75;1.00;;;21.70;99.90;;;;;;5032633;28;20041;-93
2023/07/23 11:30:59;;;;;;;1.23;1.10;;;21.50;99.90;;;;;;5042336;28;20032;-90
2023/07/23 11:33:28;;;;;;;2.63;1.38;;;21.40;99.90;;;;;;5052623;28;20070;-93
2023/07/23 11:35:53;;;;;;;2.78;1.40;;;21.20;99.90;;;;;;5052114;28;20039;-93
2023/07/23 11:38:19;;;;;;;4.97;1.63;;;21.20;99.90;;;;;;5051865;28;20441;-92
2023/07/23 11:40:57;;;;;;;5.90;2.00;;;21.40;99.90;;;;;;5050371;28;20052;-92
2023/07/23 11:43:23;;;;;;;3.42;1.90;;;21.30;99.90;;;;;;5050312;28;20033;-93
2023/07/23 11:45:51;;;;;;;6.07;1.90;;;21.40;99.90;;;;;;5051122;28;20037;-93
2023/07/23 11:48:24;;;;;;;4.20;1.73;;;21.50;99.90;;;;;;5050866;28;20029;-94
2023/07/23 11:50:50;;;;;;;4.07;2.00;;;21.70;99.90;;;;;;5051493;28;20423;-93
2023/07/23 11:53:36;;;;;;;5.82;1.98;;;21.40;99.90;;;;;;5050952;28;20032;-93
2023/07/23 11:56:09;;;;;;;5.47;2.20;;;21.50;99.90;;;;;;5051431;28;20033;-93
2023/07/23 11:58:36;;;;;;;2.67;1.70;;;21.40;99.90;;;;;;5051830;28;20032;-93
2023/07/23 12:01:03;;;;;;;6.50;1.73;;;21.50;99.90;;;;;;5050734;28;20044;-93
2023/07/23 12:03:34;;;;;;;2.90;1.80;;;21.30;99.90;;;;;;5050019;28;20559;-94
2023/07/23 12:06:00;;;;;;;4.53;2.05;;;21.40;99.90;;;;;;5064685;28;20041;-93
2023/07/23 12:08:32;;;;;;;6.75;2.00;;;21.40;99.90;;;;;;5064491;28;20026;-92
2023/07/23 12:10:58;;;;;;;4.05;1.77;;;21.20;99.90;;;;;;5031906;28;20470;-93
2023/07/23 12:13:25;;;;;;;3.65;1.75;;;21.00;99.90;;;;;;5077606;28;20036;-92
2023/07/23 12:15:54;;;;;;;3.15;1.70;;;21.00;99.90;;;;;;5047659;28;20038;-94
2023/07/23 12:18:28;;;;;;;2.72;1.65;;;21.00;99.90;;;;;;5051830;28;20412;-93
2023/07/23 12:20:58;;;;;;;4.68;1.88;;;21.00;99.90;;;;;;5051159;28;20033;-94
2023/07/23 12:23:24;;;;;;;3.72;2.05;;;21.00;99.90;;;;;;5050280;28;20390;-93
2023/07/23 12:25:50;;;;;;;4.65;1.95;;;21.00;99.90;;;;;;5051070;28;20078;-93
2023/07/23 12:28:32;;;;;;;5.20;1.70;;;21.00;99.90;;;;;;5053855;28;20025;-95
2023/07/23 12:30:57;;;;;;;4.60;1.83;;;20.90;99.90;;;;;;5053231;28;20061;-92
2023/07/23 12:33:23;;;;;;;5.38;1.80;;;20.90;99.90;;;;;;5050471;28;20098;-91
2023/07/23 12:35:48;;;;;;;5.35;1.98;;;20.60;99.90;;;;;;5050350;28;20025;-93
2023/07/23 12:38:14;;;;;;;3.92;2.20;;;20.60;99.90;;;;;;5050012;28;20025;-91
2023/07/23 12:40:40;;;;;;;6.22;2.30;;;20.60;99.90;;;;;;5049454;28;20504;-92
2023/07/23 12:43:05;;;;;;;5.05;2.50;;;20.70;99.90;;;;;;5050423;28;20041;-91
2023/07/23 12:45:31;;;;;;;5.78;2.60;;;20.60;99.90;;;;;;5049867;28;20064;-91
2023/07/23 12:47:57;;;;;;;8.55;2.72;;;20.60;99.90;;;;;;5051575;28;20028;-92